Time;durP1;ratioP1;P1;durP2;ratioP2;P2;SDS_P1;SDS_P2;PMS_P1;PMS_P2;Temp;Humidity;BMP_temperature;BMP_pressure;BME280_temperature;BME280_humidity;BME280_pressure;Samples;Min_cycle;Max_cycle;Signal;HPM_P1;HPM_P2
2023/04/12 00:00:26;;;;;;;21.00;6.57;;;12.80;99.90;;;;;;5030147;28;20499;-75
2023/04/12 00:02:52;;;;;;;27.25;6.10;;;12.80;99.90;;;;;;5032063;28;20042;-75
2023/04/12 00:05:25;;;;;;;23.15;5.95;;;12.80;99.90;;;;;;5015558;28;20464;-75
2023/04/12 00:07:55;;;;;;;28.42;7.15;;;12.80;99.90;;;;;;5036038;28;20036;-75
2023/04/12 00:10:21;;;;;;;24.23;6.60;;;12.80;99.90;;;;;;5035955;28;20029;-75
2023/04/12 00:12:48;;;;;;;28.02;6.38;;;12.80;99.90;;;;;;5035037;28;20040;-75
2023/04/12 00:15:14;;;;;;;23.63;6.47;;;12.80;99.90;;;;;;5033888;28;20026;-75
2023/04/12 00:17:40;;;;;;;25.33;5.40;;;12.80;99.90;;;;;;5035924;28;20029;-75
2023/04/12 00:20:10;;;;;;;23.77;6.75;;;12.80;99.90;;;;;;5035801;28;20037;-75
2023/04/12 00:22:37;;;;;;;21.20;5.97;;;12.80;99.90;;;;;;5034439;28;20041;-75
2023/04/12 00:25:04;;;;;;;32.90;6.05;;;12.80;99.90;;;;;;5017853;28;20502;-74
2023/04/12 00:27:30;;;;;;;27.38;6.72;;;12.80;99.90;;;;;;5049088;28;20029;-75
2023/04/12 00:29:56;;;;;;;22.55;6.32;;;12.80;99.90;;;;;;5037634;28;20048;-75
2023/04/12 00:32:23;;;;;;;25.02;6.47;;;12.80;99.90;;;;;;5053940;28;20036;-75
2023/04/12 00:34:49;;;;;;;25.30;6.15;;;12.80;99.90;;;;;;5054496;28;20032;-75
2023/04/12 00:37:15;;;;;;;23.27;5.95;;;12.80;99.90;;;;;;5054142;28;20033;-75
2023/04/12 00:39:41;;;;;;;23.90;6.03;;;12.80;99.90;;;;;;5054084;28;20032;-75
2023/04/12 00:42:07;;;;;;;21.55;6.15;;;12.80;99.90;;;;;;5055363;28;20032;-75
2023/04/12 00:44:34;;;;;;;31.13;6.05;;;12.80;99.90;;;;;;5054983;28;20029;-75
2023/04/12 00:47:00;;;;;;;22.15;5.63;;;12.80;99.90;;;;;;5036921;28;20044;-75
2023/04/12 00:49:29;;;;;;;22.67;5.80;;;12.80;99.90;;;;;;5054116;28;20025;-75
2023/04/12 00:52:09;;;;;;;23.70;5.72;;;12.80;99.90;;;;;;5053887;28;20052;-75
2023/04/12 00:54:35;;;;;;;30.58;5.72;;;12.90;99.90;;;;;;5036947;28;20041;-75
2023/04/12 00:57:02;;;;;;;21.05;5.00;;;12.80;99.90;;;;;;5053909;28;20028;-74
2023/04/12 00:59:28;;;;;;;19.38;5.20;;;12.90;99.90;;;;;;5053399;28;20492;-75
2023/04/12 01:01:55;;;;;;;21.52;5.05;;;12.90;99.90;;;;;;5053254;28;20029;-75
2023/04/12 01:04:21;;;;;;;25.55;5.40;;;12.80;99.90;;;;;;5053988;28;20029;-75
2023/04/12 01:07:14;;;;;;;19.23;5.10;;;12.80;99.90;;;;;;5053822;28;20033;-76
2023/04/12 01:10:02;;;;;;;22.25;5.10;;;12.80;99.90;;;;;;5053720;28;20372;-75
2023/04/12 01:12:36;;;;;;;18.48;5.25;;;12.80;99.90;;;;;;5053335;28;20028;-75
2023/04/12 01:15:06;;;;;;;21.50;5.10;;;12.80;99.90;;;;;;5036566;28;20029;-75
2023/04/12 01:17:37;;;;;;;25.83;5.82;;;12.80;99.90;;;;;;5052365;28;20029;-75
2023/04/12 01:20:15;;;;;;;;;;;12.80;99.90;;;;;;5055053;28;20037;-75
2023/04/12 01:22:56;;;;;;;17.08;4.72;;;12.90;99.90;;;;;;5054743;28;20386;-75
2023/04/12 01:25:46;;;;;;;19.08;5.10;;;12.80;99.90;;;;;;5054713;28;20383;-75
2023/04/12 01:28:21;;;;;;;19.08;4.70;;;12.80;99.90;;;;;;5054078;28;20041;-76
2023/04/12 01:30:49;;;;;;;23.08;5.05;;;12.80;99.90;;;;;;5036720;28;20017;-75
2023/04/12 01:33:15;;;;;;;26.30;5.20;;;12.80;99.90;;;;;;5053338;28;20373;-75
2023/04/12 01:35:41;;;;;;;30.02;5.30;;;12.80;99.90;;;;;;5036566;28;20031;-75
2023/04/12 01:38:07;;;;;;;23.00;5.00;;;12.80;99.90;;;;;;5019772;28;20033;-75
2023/04/12 01:40:34;;;;;;;25.58;5.05;;;12.80;99.90;;;;;;5036511;28;20051;-75
2023/04/12 01:43:04;;;;;;;26.17;5.22;;;12.90;99.90;;;;;;5036427;28;20024;-74
2023/04/12 01:45:30;;;;;;;28.88;5.93;;;12.80;99.90;;;;;;5030651;28;20037;-74
2023/04/12 01:47:56;;;;;;;28.63;5.57;;;12.80;99.90;;;;;;4997026;28;20034;-75
2023/04/12 01:50:30;;;;;;;26.85;5.65;;;12.80;99.90;;;;;;4984665;28;20049;-74
2023/04/12 01:53:12;;;;;;;29.80;6.35;;;12.80;99.90;;;;;;5013072;28;20042;-74
2023/04/12 01:55:41;;;;;;;31.48;5.85;;;12.80;99.90;;;;;;5014170;28;20033;-75
2023/04/12 01:58:07;;;;;;;30.98;6.28;;;12.80;99.90;;;;;;5012984;28;20022;-75
2023/04/12 02:00:34;;;;;;;26.02;4.82;;;12.90;99.90;;;;;;5012044;28;20492;-75
2023/04/12 02:03:00;;;;;;;20.90;5.10;;;12.80;99.90;;;;;;5002217;28;20033;-75
2023/04/12 02:05:26;;;;;;;26.63;5.13;;;12.80;99.90;;;;;;5033119;28;20028;-75
2023/04/12 02:07:52;;;;;;;27.08;5.28;;;12.80;99.90;;;;;;5029603;28;20038;-76
2023/04/12 02:10:29;;;;;;;24.67;5.32;;;12.80;99.90;;;;;;5029903;28;20033;-75
2023/04/12 02:12:58;;;;;;;19.17;4.78;;;12.80;99.90;;;;;;5031250;28;20017;-76
2023/04/12 02:15:24;;;;;;;23.50;4.95;;;12.80;99.90;;;;;;5030676;28;20026;-77
2023/04/12 02:17:52;;;;;;;25.27;5.10;;;12.80;99.90;;;;;;5031124;28;20025;-76
2023/04/12 02:20:20;;;;;;;21.35;4.65;;;12.80;99.90;;;;;;5030985;28;20380;-75
2023/04/12 02:22:46;;;;;;;17.58;5.03;;;12.80;99.90;;;;;;5031228;28;20026;-76
2023/04/12 02:25:12;;;;;;;20.73;4.65;;;12.80;99.90;;;;;;5031787;28;20357;-76
2023/04/12 02:27:38;;;;;;;18.98;4.55;;;12.80;99.90;;;;;;5013965;28;20028;-76
2023/04/12 02:30:05;;;;;;;21.13;4.38;;;12.80;99.90;;;;;;5031722;28;20395;-75
2023/04/12 02:32:31;;;;;;;18.77;4.68;;;12.80;99.90;;;;;;5030080;28;20048;-76
2023/04/12 02:34:57;;;;;;;28.00;4.65;;;12.80;99.90;;;;;;5030709;28;20036;-75
2023/04/12 02:37:26;;;;;;;13.55;4.40;;;12.80;99.90;;;;;;5032617;28;20371;-76
2023/04/12 02:39:55;;;;;;;19.52;3.95;;;12.80;99.90;;;;;;5031797;28;20029;-76
2023/04/12 02:42:22;;;;;;;17.30;4.32;;;12.80;99.90;;;;;;5032029;28;20025;-76
2023/04/12 02:44:48;;;;;;;12.38;4.13;;;12.80;99.90;;;;;;5015567;28;20028;-76
2023/04/12 02:47:14;;;;;;;12.48;3.70;;;12.80;99.90;;;;;;5015108;28;20510;-76
2023/04/12 02:49:40;;;;;;;17.10;4.20;;;12.80;99.90;;;;;;5030211;28;20032;-75
2023/04/12 02:52:06;;;;;;;16.48;3.53;;;12.80;99.90;;;;;;4995215;28;20042;-76
2023/04/12 02:54:32;;;;;;;17.83;3.92;;;12.80;99.90;;;;;;5012906;28;20488;-76
2023/04/12 02:56:58;;;;;;;15.82;3.78;;;12.80;99.90;;;;;;5013257;28;20025;-76
2023/04/12 02:59:24;;;;;;;15.00;3.80;;;12.80;99.90;;;;;;5011935;28;20468;-76
2023/04/12 03:01:51;;;;;;;17.60;3.70;;;12.80;99.90;;;;;;5011277;28;20492;-76
2023/04/12 03:04:17;;;;;;;9.95;3.65;;;12.80;99.90;;;;;;5011991;28;20117;-76
2023/04/12 03:06:51;;;;;;;16.30;3.25;;;12.80;99.90;;;;;;5012999;28;20037;-76
2023/04/12 03:09:17;;;;;;;14.20;4.18;;;12.80;99.90;;;;;;5012741;28;20021;-76
2023/04/12 03:11:45;;;;;;;13.55;3.72;;;12.80;99.90;;;;;;4995066;28;20511;-76
2023/04/12 03:14:11;;;;;;;12.68;3.53;;;12.80;99.90;;;;;;5011137;28;20042;-76
2023/04/12 03:16:37;;;;;;;16.23;3.88;;;12.80;99.90;;;;;;5012261;28;20037;-76
2023/04/12 03:19:04;;;;;;;11.15;3.92;;;12.80;99.90;;;;;;5012862;28;20038;-76
2023/04/12 03:21:32;;;;;;;11.82;3.13;;;12.80;99.90;;;;;;4995133;28;20045;-76
2023/04/12 03:23:58;;;;;;;14.35;3.17;;;12.80;99.90;;;;;;4995189;28;20026;-76
2023/04/12 03:26:25;;;;;;;14.20;3.38;;;12.80;99.90;;;;;;5016742;28;20036;-76
2023/04/12 03:29:03;;;;;;;10.18;3.10;;;12.80;99.90;;;;;;5030628;28;20502;-76
2023/04/12 03:31:30;;;;;;;17.02;3.50;;;12.90;99.90;;;;;;5030935;28;20030;-76
2023/04/12 03:33:56;;;;;;;12.00;3.78;;;12.90;99.90;;;;;;5014336;28;20048;-76
2023/04/12 03:36:22;;;;;;;12.82;3.55;;;12.90;99.90;;;;;;5047858;28;20036;-76
2023/04/12 03:38:48;;;;;;;11.82;3.72;;;12.90;99.90;;;;;;5047377;28;20384;-76
2023/04/12 03:41:14;;;;;;;9.32;3.05;;;12.90;99.90;;;;;;5030944;28;20051;-76
2023/04/12 03:43:41;;;;;;;13.15;3.33;;;12.80;99.90;;;;;;5046288;28;20029;-76
2023/04/12 03:46:07;;;;;;;10.52;3.13;;;12.80;99.90;;;;;;5031798;28;20037;-76
2023/04/12 03:48:33;;;;;;;13.27;3.05;;;12.70;99.90;;;;;;5014232;28;20037;-76
2023/04/12 03:51:07;;;;;;;11.43;3.63;;;12.70;99.90;;;;;;5030807;28;20061;-76
2023/04/12 03:53:33;;;;;;;9.35;3.50;;;12.70;99.90;;;;;;5015394;28;20025;-76
2023/04/12 03:55:59;;;;;;;14.00;3.95;;;12.70;99.90;;;;;;5031106;28;20025;-76
2023/04/12 03:58:25;;;;;;;8.77;3.35;;;12.70;99.90;;;;;;5030953;28;20503;-76
2023/04/12 04:00:52;;;;;;;11.70;3.47;;;12.60;99.90;;;;;;5013989;28;20034;-75
2023/04/12 04:03:18;;;;;;;8.82;3.20;;;12.60;99.90;;;;;;5013954;28;20041;-76
2023/04/12 04:05:44;;;;;;;6.93;2.78;;;12.60;99.90;;;;;;5031040;28;20030;-75
2023/04/12 04:08:10;;;;;;;6.78;2.78;;;12.50;99.90;;;;;;5014304;28;20033;-76
2023/04/12 04:10:36;;;;;;;5.18;2.42;;;12.50;99.90;;;;;;5030312;28;20037;-76
2023/04/12 04:13:02;;;;;;;6.65;2.60;;;12.40;99.90;;;;;;5013955;28;20407;-76
2023/04/12 04:15:28;;;;;;;2.60;2.25;;;12.40;99.90;;;;;;5030513;28;20032;-76
2023/04/12 04:17:54;;;;;;;6.07;2.55;;;12.40;99.90;;;;;;5014443;28;20069;-76
2023/04/12 04:20:21;;;;;;;3.92;2.10;;;12.40;99.90;;;;;;5014352;28;20034;-76
2023/04/12 04:22:47;;;;;;;5.45;2.67;;;12.40;99.90;;;;;;5031664;28;20400;-76
2023/04/12 04:25:13;;;;;;;5.00;2.17;;;12.30;99.90;;;;;;5030616;28;20025;-76
2023/04/12 04:27:45;;;;;;;5.90;2.60;;;12.30;99.90;;;;;;5030351;28;20405;-76
2023/04/12 04:30:13;;;;;;;9.02;2.45;;;12.30;99.90;;;;;;5030502;28;20033;-75
2023/04/12 04:32:40;;;;;;;5.68;2.42;;;12.30;99.90;;;;;;5031890;28;20041;-75
2023/04/12 04:35:06;;;;;;;6.97;2.42;;;12.30;99.90;;;;;;5031752;28;20357;-76
2023/04/12 04:37:34;;;;;;;6.65;2.75;;;12.30;99.90;;;;;;5030603;28;20059;-76
2023/04/12 04:40:06;;;;;;;9.30;3.00;;;12.30;99.90;;;;;;5030676;28;20030;-76
2023/04/12 04:42:32;;;;;;;6.65;3.50;;;12.30;99.90;;;;;;5030592;28;20045;-76
2023/04/12 04:45:02;;;;;;;12.55;4.05;;;12.30;99.90;;;;;;5015811;28;20380;-76
2023/04/12 04:47:29;;;;;;;12.32;3.22;;;12.30;99.90;;;;;;5009975;28;20034;-75
2023/04/12 04:49:56;;;;;;;9.50;3.00;;;12.30;99.90;;;;;;4998071;28;20040;-76
2023/04/12 04:52:23;;;;;;;4.95;2.25;;;12.30;99.90;;;;;;5032954;28;20046;-75
2023/04/12 04:54:49;;;;;;;1.80;1.70;;;12.10;99.90;;;;;;5017548;28;20048;-75
2023/04/12 04:57:15;;;;;;;2.15;1.77;;;11.40;99.90;;;;;;5034027;28;20025;-75
2023/04/12 04:59:41;;;;;;;5.03;1.70;;;11.00;99.90;;;;;;5034010;28;20379;-75
2023/04/12 05:02:07;;;;;;;2.53;1.90;;;10.50;99.90;;;;;;5033462;28;20045;-75
2023/04/12 05:04:33;;;;;;;2.63;1.83;;;10.50;99.90;;;;;;5034697;28;20510;-75
2023/04/12 05:06:59;;;;;;;3.20;1.95;;;10.50;99.90;;;;;;5034011;28;20040;-75
2023/04/12 05:09:25;;;;;;;3.03;1.90;;;10.50;99.90;;;;;;5034932;28;20029;-75
2023/04/12 05:11:52;;;;;;;6.35;2.03;;;10.60;99.90;;;;;;5033651;28;20029;-76
2023/04/12 05:14:18;;;;;;;3.13;2.00;;;10.50;99.90;;;;;;5034891;28;20025;-75
2023/04/12 05:16:44;;;;;;;3.17;1.95;;;10.50;99.90;;;;;;5034466;28;20040;-75
2023/04/12 05:19:10;;;;;;;3.50;1.95;;;10.40;99.90;;;;;;5034429;28;20032;-75
2023/04/12 05:21:36;;;;;;;5.63;2.60;;;10.30;99.90;;;;;;5033466;28;20044;-74
2023/04/12 05:24:02;;;;;;;4.45;2.40;;;10.40;99.90;;;;;;5034875;28;20372;-75
2023/04/12 05:26:28;;;;;;;4.63;2.30;;;10.40;99.90;;;;;;5016428;28;20049;-75
2023/04/12 05:28:54;;;;;;;4.50;2.63;;;10.40;99.90;;;;;;5033521;28;20032;-75
2023/04/12 05:31:20;;;;;;;5.97;2.45;;;10.50;99.90;;;;;;5032750;28;20036;-75
2023/04/12 05:33:48;;;;;;;3.55;2.25;;;10.60;99.90;;;;;;5034173;28;20029;-75
2023/04/12 05:36:14;;;;;;;3.05;2.30;;;10.40;99.90;;;;;;5017114;28;20042;-75
2023/04/12 05:38:40;;;;;;;5.65;2.33;;;10.40;99.90;;;;;;5033211;28;20463;-75
2023/04/12 05:41:06;;;;;;;5.55;2.30;;;10.50;99.90;;;;;;5033166;28;20044;-75
2023/04/12 05:43:32;;;;;;;3.65;2.50;;;10.60;99.90;;;;;;5031409;28;20425;-75
2023/04/12 05:45:58;;;;;;;4.25;2.42;;;10.50;99.90;;;;;;5012674;28;20037;-75
2023/04/12 05:48:24;;;;;;;3.25;2.13;;;10.40;99.90;;;;;;5014178;28;20036;-75
2023/04/12 05:50:51;;;;;;;6.55;2.42;;;10.30;99.90;;;;;;5004489;28;20026;-75
2023/04/12 05:53:19;;;;;;;4.72;2.78;;;10.40;99.90;;;;;;4997062;28;20046;-75
2023/04/12 05:55:45;;;;;;;5.82;3.08;;;10.50;99.90;;;;;;5012939;28;20496;-75
2023/04/12 05:58:12;;;;;;;7.85;2.88;;;10.40;99.90;;;;;;5013318;28;20030;-75
2023/04/12 06:00:40;;;;;;;5.13;2.85;;;10.40;99.90;;;;;;5013587;28;20030;-75
2023/04/12 06:03:10;;;;;;;4.43;2.35;;;10.60;99.90;;;;;;5012669;28;20033;-75
2023/04/12 06:05:37;;;;;;;6.38;2.42;;;10.50;99.90;;;;;;5012863;28;20022;-74
2023/04/12 06:08:04;;;;;;;6.80;2.38;;;10.60;99.90;;;;;;5013007;28;20036;-75
2023/04/12 06:10:30;;;;;;;7.65;2.95;;;10.60;99.90;;;;;;5014018;28;20030;-75
2023/04/12 06:12:56;;;;;;;3.47;2.80;;;10.70;99.90;;;;;;5012848;28;20026;-75
2023/04/12 06:15:22;;;;;;;5.55;2.50;;;10.80;99.90;;;;;;5012433;28;20030;-75
2023/04/12 06:17:50;;;;;;;4.47;2.33;;;11.00;99.90;;;;;;5012422;28;20465;-75
2023/04/12 06:20:16;;;;;;;4.00;2.20;;;11.10;99.90;;;;;;5013846;28;20026;-74
2023/04/12 06:22:42;;;;;;;8.07;2.63;;;11.10;99.90;;;;;;5013693;28;20045;-75
2023/04/12 06:25:08;;;;;;;8.32;3.03;;;11.10;99.90;;;;;;4996000;28;20396;-75
2023/04/12 06:27:34;;;;;;;10.15;3.05;;;11.20;99.90;;;;;;5027441;28;20029;-75
2023/04/12 06:30:00;;;;;;;6.28;3.03;;;11.30;99.90;;;;;;5032251;28;20026;-75
2023/04/12 06:32:27;;;;;;;5.18;2.90;;;11.30;99.90;;;;;;5031261;28;20036;-75
2023/04/12 06:34:53;;;;;;;6.35;2.67;;;11.30;99.90;;;;;;5032250;28;20029;-75
2023/04/12 06:37:20;;;;;;;8.48;2.70;;;11.20;99.90;;;;;;5032171;28;20041;-75
2023/04/12 06:39:46;;;;;;;6.10;2.67;;;11.20;99.90;;;;;;5032079;28;20235;-75
2023/04/12 06:42:12;;;;;;;4.95;2.70;;;11.00;99.90;;;;;;5033236;28;20045;-75
2023/04/12 06:44:39;;;;;;;5.65;2.85;;;11.00;99.90;;;;;;5031911;28;20021;-75
2023/04/12 06:47:05;;;;;;;5.43;2.70;;;11.10;99.90;;;;;;5047962;28;20040;-75
2023/04/12 06:49:31;;;;;;;8.48;2.60;;;11.10;99.90;;;;;;5052647;28;20028;-75
2023/04/12 06:51:57;;;;;;;4.57;2.67;;;11.00;99.90;;;;;;5031560;28;20053;-75
2023/04/12 06:54:23;;;;;;;5.55;2.80;;;10.90;99.90;;;;;;5014814;28;20040;-75
2023/04/12 06:56:49;;;;;;;4.75;2.60;;;10.90;99.90;;;;;;5033005;28;20034;-75
2023/04/12 06:59:16;;;;;;;5.85;2.63;;;11.00;99.90;;;;;;5031759;28;20373;-75
2023/04/12 07:01:42;;;;;;;6.22;2.60;;;11.00;99.90;;;;;;5031914;28;20057;-75
2023/04/12 07:04:08;;;;;;;9.23;2.80;;;11.00;99.90;;;;;;5031677;28;20033;-75
2023/04/12 07:06:34;;;;;;;4.32;2.60;;;11.30;99.90;;;;;;5032739;28;20036;-75
2023/04/12 07:09:00;;;;;;;4.13;2.60;;;11.50;99.90;;;;;;5031640;28;20495;-75
2023/04/12 07:11:27;;;;;;;3.38;2.38;;;11.60;99.90;;;;;;5032775;28;20021;-75
2023/04/12 07:13:54;;;;;;;5.07;2.35;;;11.70;99.90;;;;;;5014216;28;20480;-75
2023/04/12 07:16:20;;;;;;;6.05;2.60;;;11.80;99.90;;;;;;5031859;28;20041;-75
2023/04/12 07:18:46;;;;;;;7.13;3.72;;;11.90;99.90;;;;;;5014974;28;20033;-75
2023/04/12 07:21:16;;;;;;;3.63;2.80;;;11.90;99.90;;;;;;5032488;28;20049;-75
2023/04/12 07:23:43;;;;;;;5.80;2.75;;;12.00;99.90;;;;;;5031461;28;20379;-75
2023/04/12 07:26:09;;;;;;;2.70;2.50;;;12.00;99.90;;;;;;5033383;28;20040;-75
2023/04/12 07:28:36;;;;;;;3.47;2.30;;;11.80;99.90;;;;;;5052282;28;20028;-75
2023/04/12 07:31:06;;;;;;;4.80;2.60;;;11.80;99.90;;;;;;5066904;28;20407;-75
2023/04/12 07:33:34;;;;;;;5.40;2.50;;;11.80;99.90;;;;;;5051268;28;20028;-75
2023/04/12 07:36:01;;;;;;;4.90;2.88;;;11.80;99.90;;;;;;5052156;28;20037;-75
2023/04/12 07:38:27;;;;;;;3.30;2.80;;;12.10;99.90;;;;;;5051092;28;20032;-76
2023/04/12 07:40:56;;;;;;;3.83;2.55;;;12.30;99.90;;;;;;5050631;28;20037;-76
2023/04/12 07:43:22;;;;;;;4.60;2.67;;;12.50;99.90;;;;;;5033955;28;20037;-75
2023/04/12 07:45:48;;;;;;;3.40;2.90;;;12.70;99.90;;;;;;5066381;28;20483;-75
2023/04/12 07:48:15;;;;;;;3.50;3.20;;;12.90;99.90;;;;;;5052111;28;20475;-75
2023/04/12 07:50:41;;;;;;;3.15;2.80;;;13.00;99.90;;;;;;5040843;28;20032;-75
2023/04/12 07:53:26;;;;;;;3.20;3.00;;;13.10;99.90;;;;;;5032176;28;20061;-75
2023/04/12 07:55:53;;;;;;;4.82;3.42;;;13.20;99.90;;;;;;5032164;28;20372;-75
2023/04/12 07:58:20;;;;;;;3.65;3.08;;;13.30;99.90;;;;;;5014523;28;20380;-75
2023/04/12 08:00:46;;;;;;;5.45;3.30;;;13.40;99.90;;;;;;5014165;28;20030;-76
2023/04/12 08:03:13;;;;;;;3.95;3.28;;;13.50;99.90;;;;;;5032113;28;20040;-76
2023/04/12 08:05:40;;;;;;;3.65;3.35;;;13.70;99.90;;;;;;5014575;28;20105;-75
2023/04/12 08:08:08;;;;;;;5.55;3.17;;;13.70;99.90;;;;;;5014740;28;20030;-76
2023/04/12 08:10:36;;;;;;;6.03;3.53;;;13.60;99.90;;;;;;5030915;28;20037;-76
2023/04/12 08:13:02;;;;;;;4.70;3.35;;;13.70;99.90;;;;;;5013989;28;20041;-75
2023/04/12 08:15:28;;;;;;;3.60;3.30;;;13.90;99.90;;;;;;5013998;28;20493;-76
2023/04/12 08:17:55;;;;;;;3.75;3.00;;;14.00;99.90;;;;;;5032025;28;20036;-75
2023/04/12 08:20:21;;;;;;;4.30;3.17;;;14.20;99.90;;;;;;5014450;28;20476;-75
2023/04/12 08:22:47;;;;;;;3.92;3.45;;;14.10;99.90;;;;;;5030641;28;20048;-76
2023/04/12 08:25:13;;;;;;;3.60;3.25;;;14.30;99.90;;;;;;5014304;28;20025;-75
2023/04/12 08:27:41;;;;;;;3.95;3.13;;;14.40;99.90;;;;;;5014715;28;20071;-75
2023/04/12 08:30:08;;;;;;;3.72;3.22;;;14.60;99.90;;;;;;5037676;28;20033;-75
2023/04/12 08:32:34;;;;;;;6.35;3.53;;;14.60;99.90;;;;;;5055631;28;20037;-75
2023/04/12 08:35:01;;;;;;;3.20;3.00;;;14.50;99.90;;;;;;5037908;28;20464;-75
2023/04/12 08:37:27;;;;;;;4.22;3.00;;;14.40;99.90;;;;;;5055416;28;20033;-76
2023/04/12 08:39:53;;;;;;;4.47;3.33;;;14.40;99.90;;;;;;5055642;28;20025;-75
2023/04/12 08:42:19;;;;;;;6.13;3.13;;;14.20;99.90;;;;;;5055079;28;20385;-75
2023/04/12 08:44:45;;;;;;;4.05;2.90;;;14.10;99.90;;;;;;5037574;28;20037;-76
2023/04/12 08:47:11;;;;;;;4.22;3.00;;;14.10;99.90;;;;;;5054870;28;20040;-76
2023/04/12 08:49:37;;;;;;;3.58;3.10;;;14.10;99.90;;;;;;5052851;28;20040;-75
2023/04/12 08:52:05;;;;;;;4.47;3.42;;;14.10;99.90;;;;;;5035153;28;20072;-75
2023/04/12 08:54:32;;;;;;;3.50;3.20;;;14.00;99.90;;;;;;5034082;28;20025;-76
2023/04/12 08:57:01;;;;;;;5.70;3.00;;;14.10;99.90;;;;;;5017489;28;20031;-76
2023/04/12 08:59:27;;;;;;;5.90;3.38;;;14.10;99.90;;;;;;5017816;28;20025;-76
2023/04/12 09:01:54;;;;;;;4.40;3.08;;;14.30;99.90;;;;;;5033598;28;20052;-76
2023/04/12 09:04:20;;;;;;;3.60;3.25;;;14.50;99.90;;;;;;5017293;28;20502;-76
2023/04/12 09:06:46;;;;;;;4.28;3.33;;;14.60;99.90;;;;;;5034017;28;20475;-76
2023/04/12 09:09:12;;;;;;;4.00;3.40;;;14.70;99.90;;;;;;5033990;28;20033;-76
2023/04/12 09:11:39;;;;;;;7.40;3.40;;;14.80;99.90;;;;;;5017016;28;20029;-75
2023/04/12 09:14:25;;;;;;;6.50;3.50;;;14.80;99.90;;;;;;5033732;28;20475;-76
2023/04/12 09:16:51;;;;;;;5.05;3.42;;;14.80;99.90;;;;;;5034104;28;20029;-76
2023/04/12 09:19:33;;;;;;;5.80;3.28;;;14.60;99.90;;;;;;5033618;28;20040;-76
2023/04/12 09:21:59;;;;;;;5.50;3.45;;;14.50;99.90;;;;;;5017561;28;20480;-76
2023/04/12 09:24:25;;;;;;;6.82;3.00;;;14.30;99.90;;;;;;5033522;28;20025;-76
2023/04/12 09:27:03;;;;;;;4.18;3.10;;;14.30;99.90;;;;;;5024622;28;20055;-76
2023/04/12 09:29:30;;;;;;;4.82;3.20;;;14.20;99.90;;;;;;5054576;28;20025;-76
2023/04/12 09:31:59;;;;;;;5.80;3.22;;;14.00;99.90;;;;;;5036220;28;20044;-76
2023/04/12 09:34:25;;;;;;;5.65;3.30;;;13.90;99.90;;;;;;5036918;28;20016;-76
2023/04/12 09:36:52;;;;;;;7.50;3.22;;;13.80;99.90;;;;;;5052966;28;20029;-76
2023/04/12 09:39:18;;;;;;;3.78;2.90;;;13.70;99.90;;;;;;5053143;28;20033;-76
2023/04/12 09:41:44;;;;;;;6.10;3.28;;;13.70;99.90;;;;;;5052749;28;20052;-75
2023/04/12 09:44:28;;;;;;;3.95;3.00;;;13.40;99.90;;;;;;5036447;28;20383;-74
2023/04/12 09:46:54;;;;;;;3.90;2.40;;;13.10;99.90;;;;;;5052737;28;20029;-74
2023/04/12 09:49:34;;;;;;;3.20;2.60;;;12.60;99.90;;;;;;5069702;28;20025;-74
2023/04/12 09:52:00;;;;;;;2.60;2.40;;;12.20;99.90;;;;;;5065948;28;20050;-74
2023/04/12 09:54:26;;;;;;;2.50;2.40;;;12.10;99.90;;;;;;5032511;28;20483;-74
2023/04/12 09:56:52;;;;;;;2.60;2.40;;;12.30;99.90;;;;;;5033036;28;20029;-75
2023/04/12 09:59:19;;;;;;;2.70;2.50;;;12.50;99.90;;;;;;5032821;28;20397;-75
2023/04/12 10:01:45;;;;;;;2.85;2.65;;;12.80;99.90;;;;;;5032156;28;20048;-74
2023/04/12 10:04:11;;;;;;;4.57;3.03;;;13.00;99.90;;;;;;5032852;28;20483;-75
2023/04/12 10:06:37;;;;;;;3.03;2.78;;;13.10;99.90;;;;;;5032753;28;20105;-75
2023/04/12 10:09:04;;;;;;;3.22;2.92;;;13.20;99.90;;;;;;5033606;28;20029;-75
2023/04/12 10:11:30;;;;;;;4.57;2.70;;;13.30;99.90;;;;;;5033892;28;20479;-75
2023/04/12 10:13:56;;;;;;;3.60;2.75;;;13.40;99.90;;;;;;5032537;28;20464;-75
2023/04/12 10:16:22;;;;;;;4.28;2.88;;;13.40;99.90;;;;;;5031940;28;20033;-75
2023/04/12 10:18:48;;;;;;;6.55;2.60;;;13.40;99.90;;;;;;5033715;28;20036;-75
2023/04/12 10:21:15;;;;;;;3.22;2.92;;;13.50;99.90;;;;;;5032427;28;20053;-75
2023/04/12 10:23:46;;;;;;;7.38;3.03;;;13.60;99.90;;;;;;5032028;28;20041;-75
2023/04/12 10:26:13;;;;;;;4.65;3.20;;;13.70;99.90;;;;;;5036048;28;20029;-75
2023/04/12 10:28:39;;;;;;;5.95;3.60;;;13.80;99.90;;;;;;5052181;28;20044;-75
2023/04/12 10:31:29;;;;;;;4.75;3.22;;;14.00;99.90;;;;;;5051765;28;20033;-75
2023/04/12 10:33:55;;;;;;;5.85;3.13;;;14.10;99.90;;;;;;5052011;28;20041;-75
2023/04/12 10:36:54;;;;;;;5.53;3.40;;;14.30;99.90;;;;;;5052166;28;20353;-75
2023/04/12 10:39:42;;;;;;;5.13;2.90;;;14.10;99.90;;;;;;5052800;28;20036;-75
2023/04/12 10:42:27;;;;;;;3.83;3.00;;;13.80;99.90;;;;;;5051950;28;20423;-75
2023/04/12 10:44:55;;;;;;;6.80;3.22;;;13.60;99.90;;;;;;5051981;28;20032;-75
2023/04/12 10:47:47;;;;;;;3.50;3.03;;;13.80;99.90;;;;;;5051328;28;20040;-76
2023/04/12 10:50:23;;;;;;;4.68;3.35;;;14.00;99.90;;;;;;5044887;28;20052;-75
2023/04/12 10:53:14;;;;;;;6.97;3.17;;;14.00;99.90;;;;;;5032677;28;20045;-75
2023/04/12 10:55:44;;;;;;;5.55;3.03;;;14.10;99.90;;;;;;5032963;28;20028;-75
2023/04/12 10:58:10;;;;;;;5.82;3.65;;;14.40;99.90;;;;;;5031742;28;20037;-75
2023/04/12 11:00:55;;;;;;;4.22;3.03;;;14.70;99.90;;;;;;5031314;28;20037;-75
2023/04/12 11:03:21;;;;;;;7.93;3.17;;;14.90;99.90;;;;;;5032788;28;20049;-75
2023/04/12 11:06:00;;;;;;;8.00;3.17;;;14.90;99.90;;;;;;5032731;28;20021;-75
2023/04/12 11:08:30;;;;;;;6.10;2.95;;;14.90;99.90;;;;;;5015392;28;20029;-76
2023/04/12 11:11:04;;;;;;;7.07;3.45;;;14.80;99.90;;;;;;5032901;28;20491;-74
2023/04/12 11:13:34;;;;;;;5.40;3.38;;;14.70;99.90;;;;;;5015251;28;20037;-75
2023/04/12 11:16:02;;;;;;;4.97;3.05;;;14.70;99.90;;;;;;5030805;28;20029;-76
2023/04/12 11:18:28;;;;;;;5.32;2.90;;;14.60;99.90;;;;;;5015178;28;20029;-76
2023/04/12 11:20:55;;;;;;;4.43;3.10;;;14.40;99.90;;;;;;5031587;28;20041;-76
2023/04/12 11:23:22;;;;;;;5.20;3.13;;;14.20;99.90;;;;;;5014759;28;20499;-76
2023/04/12 11:25:54;;;;;;;4.55;3.05;;;14.30;99.90;;;;;;4998452;28;20038;-76
2023/04/12 11:28:22;;;;;;;3.22;2.78;;;14.30;99.90;;;;;;5031335;28;20033;-76
2023/04/12 11:30:50;;;;;;;3.60;2.85;;;14.30;99.90;;;;;;5032059;28;20128;-76
2023/04/12 11:33:37;;;;;;;4.18;3.03;;;14.20;99.90;;;;;;5031118;28;20033;-76
2023/04/12 11:36:12;;;;;;;5.18;2.88;;;14.00;99.90;;;;;;5031832;28;20392;-75
2023/04/12 11:38:38;;;;;;;6.82;3.22;;;13.80;99.90;;;;;;5031085;28;20033;-75
2023/04/12 11:41:05;;;;;;;8.88;3.30;;;13.80;99.90;;;;;;5032322;28;20025;-75
2023/04/12 11:43:37;;;;;;;6.75;3.22;;;13.70;99.90;;;;;;5033248;28;20049;-76
2023/04/12 11:46:03;;;;;;;4.93;3.60;;;13.70;99.90;;;;;;5067600;28;20021;-76
2023/04/12 11:48:29;;;;;;;5.15;3.53;;;13.70;99.90;;;;;;5050518;28;20053;-75
2023/04/12 11:50:58;;;;;;;6.03;3.63;;;13.80;99.90;;;;;;5038665;28;20040;-75
2023/04/12 11:53:28;;;;;;;6.90;3.53;;;13.90;99.90;;;;;;5031143;28;20033;-76
2023/04/12 11:55:56;;;;;;;5.03;3.33;;;14.10;99.90;;;;;;5030941;28;20032;-75
2023/04/12 11:58:23;;;;;;;5.45;3.50;;;14.30;99.90;;;;;;5032192;28;20036;-76
2023/04/12 12:00:49;;;;;;;6.07;3.53;;;14.50;99.90;;;;;;5016055;28;20033;-76
2023/04/12 12:03:15;;;;;;;5.53;3.10;;;14.70;99.90;;;;;;5034973;28;20049;-76
2023/04/12 12:05:41;;;;;;;6.22;3.30;;;14.70;99.90;;;;;;5034699;28;20030;-75
2023/04/12 12:08:07;;;;;;;3.58;3.00;;;14.90;99.90;;;;;;5034916;28;20029;-76
2023/04/12 12:10:37;;;;;;;5.25;3.22;;;15.10;99.90;;;;;;5018495;28;20487;-76
2023/04/12 12:13:09;;;;;;;5.75;3.40;;;15.30;99.90;;;;;;5034767;28;20469;-77
2023/04/12 12:15:35;;;;;;;5.03;4.22;;;15.50;99.90;;;;;;5035654;28;20373;-77
2023/04/12 12:18:01;;;;;;;6.55;3.80;;;15.60;99.90;;;;;;5036157;28;20041;-76
2023/04/12 12:20:27;;;;;;;6.75;4.00;;;15.60;99.90;;;;;;5035462;28;20038;-77
2023/04/12 12:22:54;;;;;;;5.90;4.05;;;15.70;99.90;;;;;;5034843;28;20037;-76
2023/04/12 12:25:20;;;;;;;7.70;4.50;;;15.70;99.90;;;;;;5035788;28;20368;-77
2023/04/12 12:27:50;;;;;;;6.47;3.78;;;15.80;99.90;;;;;;5033525;28;20044;-76
2023/04/12 12:30:16;;;;;;;6.38;4.03;;;15.80;99.90;;;;;;5037599;28;20048;-76
2023/04/12 12:32:43;;;;;;;8.50;4.50;;;16.00;99.90;;;;;;5037992;28;20029;-77
2023/04/12 12:35:11;;;;;;;6.93;4.50;;;16.00;99.90;;;;;;5055216;28;20372;-76
2023/04/12 12:37:37;;;;;;;8.05;4.53;;;16.00;99.90;;;;;;5037923;28;20025;-75
2023/04/12 12:40:13;;;;;;;8.73;5.03;;;16.10;99.90;;;;;;5037803;28;20029;-76
2023/04/12 12:42:50;;;;;;;10.38;5.22;;;16.10;99.90;;;;;;5055243;28;20041;-77
2023/04/12 12:45:18;;;;;;;7.30;4.70;;;16.10;99.90;;;;;;5034690;28;20396;-76
2023/04/12 12:47:52;;;;;;;8.00;4.25;;;16.00;99.90;;;;;;5014501;28;20030;-76